Time;durP1;ratioP1;P1;durP2;ratioP2;P2;SDS_P1;SDS_P2;PMS_P1;PMS_P2;Temp;Humidity;BMP_temperature;BMP_pressure;BME280_temperature;BME280_humidity;BME280_pressure;Samples;Min_cycle;Max_cycle;Signal;HPM_P1;HPM_P2
2023/08/12 00:01:24;;;;;;;1.70;1.60;;;;;;;;;;4953450;29;20195;-83
2023/08/12 00:03:55;;;;;;;1.20;1.20;;;;;;;;;;4937802;29;20245;-83
2023/08/12 00:06:24;;;;;;;2.20;1.90;;;;;;;;;;4935110;29;20262;-84
2023/08/12 00:08:52;;;;;;;1.60;1.50;;;;;;;;;;4937864;28;20243;-82
2023/08/12 00:11:22;;;;;;;4.90;1.30;;;;;;;;;;4955195;29;20311;-84
2023/08/12 00:13:51;;;;;;;1.42;1.40;;;;;;;;;;4969360;29;20241;-82
2023/08/12 00:16:20;;;;;;;1.73;1.63;;;;;;;;;;4952882;29;20219;-84
2023/08/12 00:18:48;;;;;;;1.55;1.55;;;;;;;;;;4956559;29;20205;-82
2023/08/12 00:21:18;;;;;;;2.08;1.88;;;;;;;;;;4951324;29;20627;-84
2023/08/12 00:23:47;;;;;;;2.10;2.00;;;;;;;;;;4950542;29;20218;-82
2023/08/12 00:26:16;;;;;;;1.50;1.40;;;;;;;;;;4952004;29;20201;-83
2023/08/12 00:28:46;;;;;;;1.70;1.70;;;;;;;;;;4951391;29;20295;-83
2023/08/12 00:31:15;;;;;;;2.45;1.55;;;;;;;;;;4950176;29;20194;-83
2023/08/12 00:33:43;;;;;;;1.70;1.60;;;;;;;;;;4950939;28;20212;-83
2023/08/12 00:36:11;;;;;;;1.45;1.45;;;;;;;;;;4951981;29;20212;-83
2023/08/12 00:38:39;;;;;;;1.80;1.70;;;;;;;;;;4950484;29;20204;-82
2023/08/12 00:41:08;;;;;;;2.30;1.63;;;;;;;;;;4951669;28;20218;-83
2023/08/12 00:43:35;;;;;;;3.25;1.80;;;;;;;;;;4951310;29;20199;-83
2023/08/12 00:46:03;;;;;;;1.38;1.38;;;;;;;;;;4950689;29;20656;-84
2023/08/12 00:48:33;;;;;;;1.60;1.60;;;;;;;;;;4951133;29;20220;-83
2023/08/12 00:51:03;;;;;;;3.90;1.60;;;;;;;;;;4951329;29;20205;-84
2023/08/12 00:53:31;;;;;;;1.70;1.52;;;;;;;;;;4950325;29;20603;-84
2023/08/12 00:55:59;;;;;;;1.52;1.35;;;;;;;;;;4950844;29;20732;-84
2023/08/12 00:58:28;;;;;;;1.73;1.63;;;;;;;;;;4950877;29;20295;-83
2023/08/12 01:00:56;;;;;;;1.60;1.52;;;;;;;;;;4950423;29;20210;-83
2023/08/12 01:03:24;;;;;;;1.83;1.73;;;;;;;;;;4950864;28;20208;-83
2023/08/12 01:05:55;;;;;;;1.83;1.73;;;;;;;;;;4950806;29;20199;-84
2023/08/12 01:08:25;;;;;;;1.80;1.70;;;;;;;;;;4949823;29;20193;-84
2023/08/12 01:10:54;;;;;;;2.00;1.90;;;;;;;;;;4950654;29;20281;-83
2023/08/12 01:13:28;;;;;;;1.77;1.67;;;;;;;;;;4950467;29;20626;-83
2023/08/12 01:15:59;;;;;;;4.77;1.57;;;;;;;;;;4950317;29;20244;-83
2023/08/12 01:18:29;;;;;;;1.80;1.70;;;;;;;;;;4950634;29;20211;-83
2023/08/12 01:21:03;;;;;;;2.47;1.90;;;;;;;;;;4951179;29;20215;-83
2023/08/12 01:23:32;;;;;;;1.60;1.50;;;;;;;;;;4949524;28;20247;-83
2023/08/12 01:26:00;;;;;;;2.77;2.23;;;;;;;;;;4963983;28;20439;-84
2023/08/12 01:28:30;;;;;;;1.80;1.70;;;;;;;;;;4955345;28;20281;-83
2023/08/12 01:30:59;;;;;;;1.40;1.30;;;;;;;;;;4950392;29;20200;-83
2023/08/12 01:33:29;;;;;;;1.67;1.67;;;;;;;;;;4950144;29;20214;-85
2023/08/12 01:36:00;;;;;;;1.60;1.50;;;;;;;;;;4950778;29;20306;-84
2023/08/12 01:38:31;;;;;;;1.97;1.80;;;;;;;;;;4950056;29;20307;-84
2023/08/12 01:41:02;;;;;;;1.73;1.63;;;;;;;;;;4950426;29;20276;-84
2023/08/12 01:43:33;;;;;;;1.90;1.80;;;;;;;;;;4950907;29;20577;-84
2023/08/12 01:46:00;;;;;;;1.70;1.60;;;;;;;;;;4949997;29;20192;-83
2023/08/12 01:48:30;;;;;;;2.83;1.47;;;;;;;;;;4950754;29;20207;-84
2023/08/12 01:50:59;;;;;;;1.70;1.60;;;;;;;;;;4950684;29;20202;-83
2023/08/12 01:53:28;;;;;;;1.57;1.57;;;;;;;;;;4950832;28;20214;-83
2023/08/12 01:55:55;;;;;;;1.45;1.35;;;;;;;;;;4953686;29;20726;-84
2023/08/12 01:58:26;;;;;;;1.57;1.47;;;;;;;;;;4953694;29;20207;-86
2023/08/12 02:00:55;;;;;;;1.30;1.30;;;;;;;;;;4952686;29;20724;-84
2023/08/12 02:03:24;;;;;;;1.33;1.30;;;;;;;;;;4954014;29;20203;-84
2023/08/12 02:05:52;;;;;;;1.60;1.60;;;;;;;;;;4954309;29;20215;-83
2023/08/12 02:08:21;;;;;;;1.67;1.58;;;;;;;;;;4952643;29;20216;-83
2023/08/12 02:10:51;;;;;;;1.40;1.30;;;;;;;;;;4954487;28;20235;-83
2023/08/12 02:13:19;;;;;;;2.10;1.70;;;;;;;;;;4953878;29;20271;-83
2023/08/12 02:15:48;;;;;;;1.40;1.40;;;;;;;;;;4959791;28;20250;-84
2023/08/12 02:18:17;;;;;;;1.60;1.60;;;;;;;;;;4972894;28;20305;-83
2023/08/12 02:20:47;;;;;;;1.60;1.50;;;;;;;;;;4973271;28;20306;-83
2023/08/12 02:23:17;;;;;;;3.10;1.70;;;;;;;;;;4971878;28;20201;-83
2023/08/12 02:25:45;;;;;;;1.47;1.40;;;;;;;;;;4973609;28;20209;-83
2023/08/12 02:28:13;;;;;;;1.40;1.40;;;;;;;;;;4973435;28;20221;-83
2023/08/12 02:30:44;;;;;;;1.40;1.40;;;;;;;;;;4972403;28;20211;-84
2023/08/12 02:33:14;;;;;;;1.53;1.50;;;;;;;;;;4973434;28;20215;-84
2023/08/12 02:35:43;;;;;;;1.10;1.10;;;;;;;;;;4972381;28;20296;-82
2023/08/12 02:38:11;;;;;;;1.10;1.10;;;;;;;;;;4972315;28;20204;-83
2023/08/12 02:40:40;;;;;;;1.70;1.60;;;;;;;;;;4973062;28;20240;-82
2023/08/12 02:43:10;;;;;;;2.13;1.63;;;;;;;;;;4972090;28;20574;-83
2023/08/12 02:45:37;;;;;;;1.00;1.00;;;;;;;;;;4971607;28;20199;-83
2023/08/12 02:48:05;;;;;;;1.80;1.70;;;;;;;;;;4972205;28;20199;-83
2023/08/12 02:50:36;;;;;;;1.30;1.30;;;;;;;;;;4972342;28;20228;-83
2023/08/12 02:53:05;;;;;;;1.50;1.40;;;;;;;;;;4971890;28;20202;-83
2023/08/12 02:55:37;;;;;;;2.10;1.73;;;;;;;;;;4972100;28;20237;-84
2023/08/12 02:58:06;;;;;;;1.80;1.30;;;;;;;;;;4972541;28;20272;-83
2023/08/12 03:00:35;;;;;;;1.40;1.30;;;;;;;;;;4971326;28;20210;-83
2023/08/12 03:03:04;;;;;;;1.67;1.40;;;;;;;;;;4972608;28;20215;-83
2023/08/12 03:05:32;;;;;;;1.20;1.20;;;;;;;;;;4973090;28;20282;-82
2023/08/12 03:08:04;;;;;;;1.23;1.23;;;;;;;;;;4971437;28;20278;-83
2023/08/12 03:10:34;;;;;;;1.27;1.27;;;;;;;;;;4972000;28;20320;-83
2023/08/12 03:13:03;;;;;;;1.40;1.30;;;;;;;;;;4972406;28;20229;-83
2023/08/12 03:15:31;;;;;;;2.27;1.73;;;;;;;;;;4971294;28;20230;-83
2023/08/12 03:18:01;;;;;;;5.23;1.70;;;;;;;;;;4972506;28;20251;-84
2023/08/12 03:20:30;;;;;;;1.33;1.33;;;;;;;;;;4971495;28;20674;-83
2023/08/12 03:23:00;;;;;;;1.13;1.13;;;;;;;;;;4970964;28;20270;-83
2023/08/12 03:25:31;;;;;;;1.07;1.07;;;;;;;;;;4972220;28;20232;-83
2023/08/12 03:27:59;;;;;;;1.50;1.40;;;;;;;;;;4971770;28;20316;-85
2023/08/12 03:30:28;;;;;;;2.17;2.00;;;;;;;;;;4971030;28;20218;-83
2023/08/12 03:33:04;;;;;;;1.90;1.80;;;;;;;;;;4972008;28;20199;-84
2023/08/12 03:35:33;;;;;;;2.53;1.93;;;;;;;;;;4970415;28;20258;-83
2023/08/12 03:38:03;;;;;;;4.80;3.83;;;;;;;;;;4971937;28;20196;-82
2023/08/12 03:40:33;;;;;;;3.67;3.37;;;;;;;;;;4972333;28;20223;-83
2023/08/12 03:43:02;;;;;;;1.63;1.53;;;;;;;;;;4970961;28;20200;-83
2023/08/12 03:45:30;;;;;;;1.43;1.43;;;;;;;;;;4971956;28;20205;-83
2023/08/12 03:47:59;;;;;;;1.65;1.55;;;;;;;;;;4971636;28;20209;-83
2023/08/12 03:50:27;;;;;;;1.42;1.42;;;;;;;;;;4970333;28;20201;-83
2023/08/12 03:52:57;;;;;;;1.50;1.50;;;;;;;;;;4971457;28;20202;-83
2023/08/12 03:55:25;;;;;;;2.75;1.50;;;;;;;;;;4971523;28;20232;-83
2023/08/12 03:57:57;;;;;;;1.27;1.27;;;;;;;;;;4970815;28;20243;-83
2023/08/12 04:00:26;;;;;;;1.27;1.27;;;;;;;;;;4971584;28;20210;-83
2023/08/12 04:02:55;;;;;;;1.33;1.33;;;;;;;;;;4971472;28;20659;-84
2023/08/12 04:05:25;;;;;;;2.78;2.03;;;;;;;;;;4970154;28;20725;-83
2023/08/12 04:07:54;;;;;;;1.70;1.60;;;;;;;;;;4970426;28;20206;-84
2023/08/12 04:10:24;;;;;;;2.03;1.92;;;;;;;;;;4970612;28;20714;-84
2023/08/12 04:12:54;;;;;;;1.52;1.42;;;;;;;;;;4970391;28;20418;-84
2023/08/12 04:15:24;;;;;;;1.50;1.40;;;;;;;;;;4970068;28;20244;-84
2023/08/12 04:17:53;;;;;;;1.67;1.58;;;;;;;;;;4972126;28;20202;-85
2023/08/12 04:20:22;;;;;;;1.55;1.55;;;;;;;;;;4969749;28;20249;-84
2023/08/12 04:22:51;;;;;;;1.42;1.42;;;;;;;;;;4971259;28;20288;-85
2023/08/12 04:25:21;;;;;;;1.60;1.50;;;;;;;;;;4970606;28;20296;-85
2023/08/12 04:27:50;;;;;;;1.50;1.45;;;;;;;;;;4969961;28;20198;-84
2023/08/12 04:30:19;;;;;;;1.67;1.65;;;;;;;;;;4970730;28;20198;-85
2023/08/12 04:32:49;;;;;;;2.03;1.98;;;;;;;;;;4970506;28;20206;-85
2023/08/12 04:35:20;;;;;;;2.65;1.50;;;;;;;;;;4970168;28;20724;-85
2023/08/12 04:37:55;;;;;;;1.67;1.67;;;;;;;;;;4971011;28;20213;-85
2023/08/12 04:40:26;;;;;;;5.10;1.40;;;;;;;;;;4970538;28;20206;-85
2023/08/12 04:42:54;;;;;;;1.85;1.75;;;;;;;;;;4970384;28;20770;-85
2023/08/12 04:45:25;;;;;;;1.95;1.85;;;;;;;;;;4970559;28;20194;-85
2023/08/12 04:47:55;;;;;;;1.77;1.67;;;;;;;;;;4969957;28;20381;-83
2023/08/12 04:50:25;;;;;;;1.40;1.40;;;;;;;;;;4970399;28;20198;-87
2023/08/12 04:52:53;;;;;;;1.67;1.63;;;;;;;;;;4971428;28;20209;-83
2023/08/12 04:55:21;;;;;;;1.30;1.30;;;;;;;;;;4978688;28;20202;-84
2023/08/12 04:57:51;;;;;;;1.88;1.67;;;;;;;;;;4982453;28;20345;-83
2023/08/12 05:00:22;;;;;;;1.83;1.73;;;;;;;;;;4984673;28;20619;-84
2023/08/12 05:02:50;;;;;;;1.30;1.30;;;;;;;;;;4980789;28;20321;-85
2023/08/12 05:05:20;;;;;;;1.52;1.42;;;;;;;;;;4970820;28;20202;-84
2023/08/12 05:07:51;;;;;;;1.63;1.55;;;;;;;;;;4971131;28;20189;-84
2023/08/12 05:10:20;;;;;;;1.48;1.38;;;;;;;;;;4970351;28;20269;-86
2023/08/12 05:12:50;;;;;;;1.73;1.63;;;;;;;;;;4969601;28;20233;-84
2023/08/12 05:15:18;;;;;;;1.33;1.33;;;;;;;;;;4969592;28;20570;-84
2023/08/12 05:17:46;;;;;;;1.23;1.23;;;;;;;;;;4970705;28;20205;-84
2023/08/12 05:20:15;;;;;;;1.33;1.33;;;;;;;;;;4970625;28;20589;-84
2023/08/12 05:22:48;;;;;;;1.10;1.10;;;;;;;;;;4970844;28;20216;-84
2023/08/12 05:25:17;;;;;;;1.60;1.50;;;;;;;;;;4979638;28;20223;-82
2023/08/12 05:27:47;;;;;;;1.50;1.40;;;;;;;;;;4977173;28;20216;-83
2023/08/12 05:30:18;;;;;;;1.27;1.27;;;;;;;;;;4974354;28;20190;-83
2023/08/12 05:32:47;;;;;;;1.48;1.48;;;;;;;;;;4974465;28;20255;-83
2023/08/12 05:35:16;;;;;;;1.58;1.50;;;;;;;;;;4973588;28;20261;-84
2023/08/12 05:37:47;;;;;;;2.65;1.95;;;;;;;;;;4973746;28;20214;-84
2023/08/12 05:40:16;;;;;;;1.02;1.02;;;;;;;;;;4973942;28;20202;-84
2023/08/12 05:42:45;;;;;;;1.38;1.38;;;;;;;;;;4973505;28;20229;-85
2023/08/12 05:45:15;;;;;;;1.40;1.40;;;;;;;;;;4982576;28;20201;-85
2023/08/12 05:47:44;;;;;;;3.95;2.10;;;;;;;;;;4988876;28;20659;-84
2023/08/12 05:50:14;;;;;;;2.78;1.77;;;;;;;;;;4986179;28;20280;-86
2023/08/12 05:52:46;;;;;;;2.25;1.63;;;;;;;;;;4992862;28;20300;-85
2023/08/12 05:55:17;;;;;;;1.63;1.52;;;;;;;;;;4994014;28;20197;-86
2023/08/12 05:57:46;;;;;;;1.33;1.33;;;;;;;;;;4991799;28;20233;-84
2023/08/12 06:00:16;;;;;;;1.65;1.55;;;;;;;;;;4993174;28;20197;-85
2023/08/12 06:02:51;;;;;;;1.75;1.73;;;;;;;;;;4984595;28;20299;-85
2023/08/12 06:05:22;;;;;;;1.30;1.30;;;;;;;;;;4968399;28;20277;-84
2023/08/12 06:07:51;;;;;;;1.52;1.42;;;;;;;;;;4969160;28;20209;-84
2023/08/12 06:10:20;;;;;;;1.30;1.30;;;;;;;;;;4986489;28;20237;-83
2023/08/12 06:12:50;;;;;;;1.45;1.35;;;;;;;;;;5002174;28;20209;-84
2023/08/12 06:15:18;;;;;;;0.88;0.88;;;;;;;;;;4998844;28;20263;-84
2023/08/12 06:17:49;;;;;;;8.32;1.20;;;;;;;;;;4991485;28;20221;-83
2023/08/12 06:20:18;;;;;;;1.20;1.20;;;;;;;;;;5000372;28;20213;-82
2023/08/12 06:22:48;;;;;;;1.92;1.58;;;;;;;;;;4988986;28;20204;-84
2023/08/12 06:25:18;;;;;;;1.40;1.30;;;;;;;;;;4980416;28;20213;-84
2023/08/12 06:28:13;;;;;;;1.52;1.50;;;;;;;;;;4978244;28;20244;-84
2023/08/12 06:30:42;;;;;;;1.08;1.08;;;;;;;;;;4975378;28;20213;-83
2023/08/12 06:33:13;;;;;;;1.27;1.27;;;;;;;;;;4970638;28;20701;-84
2023/08/12 06:35:42;;;;;;;1.40;1.30;;;;;;;;;;4971991;28;20710;-84
2023/08/12 06:38:11;;;;;;;1.45;1.35;;;;;;;;;;4960362;28;20245;-85
2023/08/12 06:40:40;;;;;;;1.25;1.20;;;;;;;;;;4970044;28;20313;-84
2023/08/12 06:43:11;;;;;;;1.15;1.05;;;;;;;;;;4967917;28;20229;-83
2023/08/12 06:45:40;;;;;;;1.20;1.20;;;;;;;;;;4971634;28;20257;-86
2023/08/12 06:48:10;;;;;;;1.42;1.42;;;;;;;;;;4962666;28;20244;-84
2023/08/12 06:50:37;;;;;;;1.35;1.25;;;;;;;;;;4972288;28;20576;-86
2023/08/12 06:53:08;;;;;;;1.20;1.20;;;;;;;;;;4966683;28;20225;-85
2023/08/12 06:55:44;;;;;;;1.58;1.48;;;;;;;;;;4971032;28;20229;-85
2023/08/12 06:58:15;;;;;;;1.80;1.70;;;;;;;;;;4949585;28;20233;-87
2023/08/12 07:00:46;;;;;;;1.33;1.30;;;;;;;;;;4972015;28;20320;-84
2023/08/12 07:03:13;;;;;;;1.35;1.35;;;;;;;;;;4980465;28;20222;-85
2023/08/12 07:05:55;;;;;;;1.33;1.33;;;;;;;;;;4974698;28;20286;-86
2023/08/12 07:08:24;;;;;;;1.50;1.50;;;;;;;;;;4976966;28;20221;-85
2023/08/12 07:10:54;;;;;;;1.30;1.30;;;;;;;;;;4996413;28;20272;-85
2023/08/12 07:13:24;;;;;;;3.25;1.40;;;;;;;;;;4989640;28;20267;-84
2023/08/12 07:15:55;;;;;;;1.27;1.27;;;;;;;;;;4995476;28;20201;-84
2023/08/12 07:18:25;;;;;;;1.88;1.77;;;;;;;;;;4979480;28;20201;-84
2023/08/12 07:20:54;;;;;;;3.33;1.52;;;;;;;;;;4978906;28;20209;-84
2023/08/12 07:23:24;;;;;;;1.50;1.50;;;;;;;;;;4981414;28;20201;-85
2023/08/12 07:25:56;;;;;;;1.20;1.20;;;;;;;;;;4992166;28;20189;-84
2023/08/12 07:28:45;;;;;;;1.40;1.40;;;;;;;;;;5002295;28;20221;-85
2023/08/12 07:31:15;;;;;;;1.38;1.38;;;;;;;;;;5003218;28;20289;-84
2023/08/12 07:33:46;;;;;;;1.67;1.40;;;;;;;;;;4994863;28;20193;-85
2023/08/12 07:36:15;;;;;;;1.42;1.42;;;;;;;;;;4994470;28;20711;-84
2023/08/12 07:38:44;;;;;;;1.75;1.65;;;;;;;;;;4993431;28;20197;-84
2023/08/12 07:41:12;;;;;;;1.52;1.52;;;;;;;;;;4993426;28;20697;-82
2023/08/12 07:43:48;;;;;;;1.70;1.70;;;;;;;;;;4994144;28;20288;-84
2023/08/12 07:46:51;;;;;;;1.75;1.75;;;;;;;;;;4992096;28;20210;-85
2023/08/12 07:49:37;;;;;;;1.40;1.40;;;;;;;;;;4988066;28;20677;-84
2023/08/12 07:52:06;;;;;;;1.88;1.77;;;;;;;;;;4953606;28;20231;-85
2023/08/12 07:54:34;;;;;;;1.50;1.50;;;;;;;;;;4953496;29;20234;-85
2023/08/12 07:57:04;;;;;;;1.63;1.63;;;;;;;;;;4953517;29;20230;-85
2023/08/12 07:59:39;;;;;;;1.42;1.33;;;;;;;;;;4952874;29;20624;-83
2023/08/12 08:02:10;;;;;;;1.58;1.48;;;;;;;;;;4952433;29;20205;-85
2023/08/12 08:04:57;;;;;;;1.77;1.73;;;;;;;;;;4953959;29;20198;-85
2023/08/12 08:07:26;;;;;;;1.80;1.75;;;;;;;;;;4952431;29;20211;-86
2023/08/12 08:09:57;;;;;;;1.52;1.52;;;;;;;;;;4952404;28;20247;-86
2023/08/12 08:12:27;;;;;;;1.95;1.85;;;;;;;;;;4952546;29;20199;-86
2023/08/12 08:14:59;;;;;;;1.27;1.27;;;;;;;;;;4957912;28;20229;-84
2023/08/12 08:17:28;;;;;;;2.75;1.55;;;;;;;;;;4973016;28;20234;-84
2023/08/12 08:19:59;;;;;;;7.80;1.90;;;;;;;;;;4965016;28;20663;-86
2023/08/12 08:22:58;;;;;;;;;;;;;;;;;;;;;
2023/08/12 08:25:28;;;;;;;1.52;1.52;;;;;;;;;;4961200;28;20218;-84
2023/08/12 08:28:01;;;;;;;1.67;1.67;;;;;;;;;;4971869;28;20212;-85
2023/08/12 08:30:31;;;;;;;1.90;1.80;;;;;;;;;;4972974;28;20194;-85
2023/08/12 08:33:02;;;;;;;1.83;1.73;;;;;;;;;;4972965;28;20197;-83
2023/08/12 08:35:39;;;;;;;1.52;1.42;;;;;;;;;;4973074;28;20209;-86
2023/08/12 08:38:09;;;;;;;1.77;1.70;;;;;;;;;;4971405;28;20288;-84
2023/08/12 08:40:39;;;;;;;2.08;1.98;;;;;;;;;;4970999;28;20256;-88
2023/08/12 08:43:09;;;;;;;1.55;1.52;;;;;;;;;;4971933;28;20292;-87
2023/08/12 08:45:39;;;;;;;2.63;1.75;;;;;;;;;;4971325;28;20202;-86
2023/08/12 08:48:10;;;;;;;1.77;1.67;;;;;;;;;;4971208;28;20334;-87
2023/08/12 08:50:39;;;;;;;2.33;1.55;;;;;;;;;;4971807;28;20209;-85
2023/08/12 08:53:08;;;;;;;1.90;1.80;;;;;;;;;;4971845;28;20315;-84
2023/08/12 08:55:35;;;;;;;1.63;1.63;;;;;;;;;;4970570;28;20585;-86
2023/08/12 08:58:05;;;;;;;4.35;2.50;;;;;;;;;;4971276;28;20264;-85
2023/08/12 09:00:34;;;;;;;1.60;1.48;;;;;;;;;;4971499;28;20210;-86
2023/08/12 09:03:06;;;;;;;2.05;1.38;;;;;;;;;;4971069;28;20202;-84
2023/08/12 09:05:36;;;;;;;4.40;1.70;;;;;;;;;;4972073;28;20609;-85
2023/08/12 09:08:06;;;;;;;2.67;1.50;;;;;;;;;;4972017;28;20253;-87
2023/08/12 09:10:34;;;;;;;1.60;1.50;;;;;;;;;;4954477;28;20636;-85
2023/08/12 09:13:04;;;;;;;1.80;1.80;;;;;;;;;;4932043;29;20218;-85
2023/08/12 09:15:33;;;;;;;1.60;1.50;;;;;;;;;;4932227;29;20203;-86
2023/08/12 09:18:05;;;;;;;1.40;1.40;;;;;;;;;;4931000;29;20626;-85
2023/08/12 09:20:35;;;;;;;3.47;1.50;;;;;;;;;;4932954;29;20222;-85
2023/08/12 09:23:08;;;;;;;1.90;1.90;;;;;;;;;;4932991;29;20208;-85
2023/08/12 09:25:47;;;;;;;1.80;1.80;;;;;;;;;;4931444;29;20692;-85
2023/08/12 09:28:19;;;;;;;1.88;1.77;;;;;;;;;;4932483;29;20311;-85
2023/08/12 09:30:51;;;;;;;1.58;1.48;;;;;;;;;;4932411;29;20192;-86
2023/08/12 09:33:25;;;;;;;1.98;1.92;;;;;;;;;;4932929;29;20657;-84
2023/08/12 09:35:54;;;;;;;1.83;1.73;;;;;;;;;;4933087;29;20590;-83
2023/08/12 09:38:22;;;;;;;1.70;1.60;;;;;;;;;;4931672;29;20766;-86
2023/08/12 09:40:53;;;;;;;1.45;1.45;;;;;;;;;;4932550;29;20208;-86
2023/08/12 09:43:25;;;;;;;3.75;1.48;;;;;;;;;;4932700;29;20207;-85
2023/08/12 09:45:56;;;;;;;1.45;1.45;;;;;;;;;;4931651;29;20318;-86
2023/08/12 09:48:25;;;;;;;1.67;1.45;;;;;;;;;;4932744;29;20325;-86
2023/08/12 09:50:56;;;;;;;1.52;1.42;;;;;;;;;;4932109;29;20223;-84
2023/08/12 09:53:24;;;;;;;1.80;1.35;;;;;;;;;;4931138;29;20250;-84
2023/08/12 09:55:53;;;;;;;1.60;1.60;;;;;;;;;;4931783;29;20212;-85
2023/08/12 09:58:23;;;;;;;1.75;1.65;;;;;;;;;;4932012;29;20322;-87
2023/08/12 10:00:53;;;;;;;1.88;1.80;;;;;;;;;;4931881;29;20210;-85
2023/08/12 10:03:23;;;;;;;1.58;1.48;;;;;;;;;;4939268;29;20200;-84
2023/08/12 10:05:52;;;;;;;1.58;1.58;;;;;;;;;;4951648;29;20512;-84
2023/08/12 10:08:23;;;;;;;1.60;1.60;;;;;;;;;;4935793;29;20234;-84
2023/08/12 10:10:52;;;;;;;1.70;1.70;;;;;;;;;;4932503;28;20657;-84
2023/08/12 10:13:22;;;;;;;1.73;1.65;;;;;;;;;;4932382;29;20223;-84
2023/08/12 10:15:51;;;;;;;1.60;1.60;;;;;;;;;;4935242;29;20370;-84
2023/08/12 10:18:21;;;;;;;1.58;1.48;;;;;;;;;;4935315;29;20241;-84
2023/08/12 10:20:52;;;;;;;1.75;1.65;;;;;;;;;;4936064;29;20223;-85
2023/08/12 10:23:25;;;;;;;1.40;1.40;;;;;;;;;;4934783;29;20211;-85
2023/08/12 10:26:05;;;;;;;1.83;1.60;;;;;;;;;;4935735;29;20215;-85
2023/08/12 10:28:36;;;;;;;1.25;1.25;;;;;;;;;;4934822;29;20680;-86
2023/08/12 10:31:06;;;;;;;1.40;1.40;;;;;;;;;;4935020;29;20258;-85
2023/08/12 10:33:37;;;;;;;1.45;1.45;;;;;;;;;;4935870;29;20207;-87
2023/08/12 10:36:08;;;;;;;1.40;1.40;;;;;;;;;;4935484;29;20202;-86
2023/08/12 10:38:39;;;;;;;1.48;1.48;;;;;;;;;;4934170;29;20247;-85
2023/08/12 10:41:20;;;;;;;3.35;1.85;;;;;;;;;;4935015;29;20203;-85
2023/08/12 10:43:54;;;;;;;1.63;1.55;;;;;;;;;;4935220;29;20687;-85
2023/08/12 10:46:23;;;;;;;1.70;1.60;;;;;;;;;;4934292;29;20254;-84
2023/08/12 10:48:57;;;;;;;1.02;1.02;;;;;;;;;;4934782;29;20211;-85
2023/08/12 10:51:42;;;;;;;1.50;1.40;;;;;;;;;;4934740;29;20204;-85
2023/08/12 10:54:21;;;;;;;1.50;1.45;;;;;;;;;;4934261;29;20625;-85
2023/08/12 10:57:11;;;;;;;1.48;1.48;;;;;;;;;;4935207;29;20586;-86
2023/08/12 10:59:54;;;;;;;2.70;1.65;;;;;;;;;;4934627;29;20195;-85
2023/08/12 11:02:27;;;;;;;1.50;1.50;;;;;;;;;;4934600;29;20309;-85
2023/08/12 11:04:58;;;;;;;3.08;1.70;;;;;;;;;;4934900;29;20206;-85
2023/08/12 11:07:29;;;;;;;1.55;1.45;;;;;;;;;;4933892;29;20274;-86
2023/08/12 11:09:59;;;;;;;1.17;1.17;;;;;;;;;;4933670;29;20239;-86
2023/08/12 11:12:35;;;;;;;6.15;1.23;;;;;;;;;;4933416;29;20693;-86
2023/08/12 11:15:05;;;;;;;2.50;1.50;;;;;;;;;;4934339;29;20235;-85
2023/08/12 11:17:38;;;;;;;1.33;1.33;;;;;;;;;;4933993;29;20345;-85
2023/08/12 11:20:09;;;;;;;1.27;1.27;;;;;;;;;;4934738;29;20278;-85
2023/08/12 11:22:39;;;;;;;1.70;1.60;;;;;;;;;;4934134;29;20247;-85
2023/08/12 11:25:09;;;;;;;1.40;1.40;;;;;;;;;;4933975;29;20208;-85
2023/08/12 11:27:40;;;;;;;1.30;1.30;;;;;;;;;;4934130;29;20235;-85
2023/08/12 11:30:12;;;;;;;1.50;1.40;;;;;;;;;;4934203;29;20215;-85
2023/08/12 11:32:40;;;;;;;1.70;1.60;;;;;;;;;;4934251;29;20210;-85
2023/08/12 11:35:10;;;;;;;1.40;1.40;;;;;;;;;;4934288;29;20212;-85
2023/08/12 11:37:41;;;;;;;3.50;1.52;;;;;;;;;;4933741;29;20230;-85
2023/08/12 11:40:14;;;;;;;1.40;1.30;;;;;;;;;;4934349;29;20645;-85
2023/08/12 11:42:43;;;;;;;1.00;1.00;;;;;;;;;;4933666;29;20684;-84
2023/08/12 11:45:11;;;;;;;2.65;1.23;;;;;;;;;;4933678;29;20200;-84
2023/08/12 11:47:41;;;;;;;1.02;1.00;;;;;;;;;;4935272;29;20335;-84
2023/08/12 11:50:10;;;;;;;1.02;1.02;;;;;;;;;;4935286;29;20203;-85
2023/08/12 11:52:39;;;;;;;1.10;1.10;;;;;;;;;;4934035;29;20319;-84
2023/08/12 11:55:09;;;;;;;1.08;1.08;;;;;;;;;;4934731;29;20203;-85
2023/08/12 11:57:40;;;;;;;1.08;1.08;;;;;;;;;;4933961;29;20235;-85
2023/08/12 12:00:13;;;;;;;0.75;0.75;;;;;;;;;;4933748;29;20274;-85
2023/08/12 12:02:42;;;;;;;1.20;1.20;;;;;;;;;;4934285;29;20295;-86
2023/08/12 12:05:11;;;;;;;0.95;0.95;;;;;;;;;;4933844;29;20226;-86
2023/08/12 12:07:43;;;;;;;1.00;1.00;;;;;;;;;;4933242;29;20211;-86
2023/08/12 12:10:13;;;;;;;0.88;0.88;;;;;;;;;;4933812;28;20321;-85
2023/08/12 12:12:45;;;;;;;1.33;1.33;;;;;;;;;;4933784;29;20203;-85
2023/08/12 12:15:15;;;;;;;1.25;1.02;;;;;;;;;;4933392;29;20212;-85
2023/08/12 12:17:43;;;;;;;1.20;1.20;;;;;;;;;;4933865;29;20594;-85
2023/08/12 12:20:14;;;;;;;1.10;1.10;;;;;;;;;;4933144;29;20216;-85
2023/08/12 12:22:43;;;;;;;1.25;1.25;;;;;;;;;;4933036;29;20231;-86
2023/08/12 12:25:11;;;;;;;1.15;1.15;;;;;;;;;;4933657;29;20728;-86
2023/08/12 12:27:40;;;;;;;1.05;1.05;;;;;;;;;;4933572;29;20592;-86
2023/08/12 12:30:11;;;;;;;2.50;2.40;;;;;;;;;;4932400;29;20688;-86
2023/08/12 12:32:40;;;;;;;1.25;1.25;;;;;;;;;;4933119;29;20191;-87
2023/08/12 12:35:10;;;;;;;1.05;1.05;;;;;;;;;;4937573;29;20255;-86
2023/08/12 12:37:40;;;;;;;1.33;1.30;;;;;;;;;;4934007;29;20207;-86
2023/08/12 12:40:09;;;;;;;1.00;1.00;;;;;;;;;;4949219;29;20203;-88
2023/08/12 12:42:38;;;;;;;1.35;1.35;;;;;;;;;;4943613;29;20451;-86
2023/08/12 12:45:11;;;;;;;1.40;1.40;;;;;;;;;;4935178;29;20225;-86
2023/08/12 12:47:40;;;;;;;1.25;1.25;;;;;;;;;;4934074;29;20203;-87
2023/08/12 12:50:09;;;;;;;1.48;1.48;;;;;;;;;;4934672;29;20293;-85
2023/08/12 12:52:38;;;;;;;1.20;1.20;;;;;;;;;;4932017;29;20208;-85
2023/08/12 12:55:09;;;;;;;8.82;1.65;;;;;;;;;;4932882;29;20217;-85
2023/08/12 12:57:38;;;;;;;1.00;1.00;;;;;;;;;;4932905;29;20283;-85
2023/08/12 13:00:11;;;;;;;1.13;1.13;;;;;;;;;;4932293;29;20306;-84
2023/08/12 13:02:48;;;;;;;1.08;1.08;;;;;;;;;;4933434;29;20200;-86
2023/08/12 13:05:18;;;;;;;1.33;1.30;;;;;;;;;;4932905;29;20203;-86
2023/08/12 13:07:48;;;;;;;3.20;1.15;;;;;;;;;;4932736;29;20195;-87
2023/08/12 13:10:17;;;;;;;1.65;1.65;;;;;;;;;;4935688;28;20235;-87
2023/08/12 13:12:48;;;;;;;4.10;1.30;;;;;;;;;;4945548;29;20203;-85
2023/08/12 13:15:19;;;;;;;1.17;1.17;;;;;;;;;;4942344;29;20704;-84
2023/08/12 13:17:49;;;;;;;1.25;1.25;;;;;;;;;;4939611;29;20266;-85
2023/08/12 13:20:20;;;;;;;1.20;1.20;;;;;;;;;;4945860;29;20200;-83
2023/08/12 13:22:50;;;;;;;1.10;1.10;;;;;;;;;;4939918;29;20215;-83
2023/08/12 13:25:19;;;;;;;3.55;3.28;;;;;;;;;;4942273;29;20195;-83
2023/08/12 13:27:53;;;;;;;1.55;1.45;;;;;;;;;;4933347;29;20640;-83
2023/08/12 13:30:25;;;;;;;1.30;1.30;;;;;;;;;;4936114;29;20214;-84
2023/08/12 13:32:56;;;;;;;1.45;1.40;;;;;;;;;;4941681;29;20235;-84
2023/08/12 13:35:25;;;;;;;2.13;2.03;;;;;;;;;;4939254;29;20290;-84
2023/08/12 13:37:55;;;;;;;1.48;1.48;;;;;;;;;;4938506;29;20211;-86
2023/08/12 13:40:24;;;;;;;1.00;1.00;;;;;;;;;;4933531;29;20211;-86
2023/08/12 13:42:52;;;;;;;1.30;1.30;;;;;;;;;;4932820;29;20346;-86
2023/08/12 13:45:23;;;;;;;1.30;1.30;;;;;;;;;;4932967;29;20211;-86
2023/08/12 13:47:55;;;;;;;1.08;1.08;;;;;;;;;;4933392;29;20199;-85
2023/08/12 13:50:27;;;;;;;2.20;1.08;;;;;;;;;;4936586;29;20345;-86
2023/08/12 13:52:55;;;;;;;1.10;1.10;;;;;;;;;;4940253;29;20219;-85
2023/08/12 13:55:25;;;;;;;1.10;1.10;;;;;;;;;;4941674;29;20286;-85
2023/08/12 13:57:55;;;;;;;1.08;1.08;;;;;;;;;;4938047;29;20206;-86
2023/08/12 14:00:25;;;;;;;1.17;1.17;;;;;;;;;;4935930;29;20206;-86
2023/08/12 14:02:53;;;;;;;1.00;1.00;;;;;;;;;;4936766;29;20274;-86
2023/08/12 14:05:21;;;;;;;1.45;1.30;;;;;;;;;;4935858;29;20657;-87
2023/08/12 14:07:53;;;;;;;0.98;0.98;;;;;;;;;;4935847;29;20312;-85
2023/08/12 14:10:20;;;;;;;2.08;1.17;;;;;;;;;;4935015;28;20638;-85
2023/08/12 14:12:49;;;;;;;1.30;1.30;;;;;;;;;;4935529;29;20235;-85
2023/08/12 14:15:19;;;;;;;1.52;1.52;;;;;;;;;;4936489;29;20383;-84
2023/08/12 14:17:49;;;;;;;1.10;1.10;;;;;;;;;;4934876;29;20203;-85
2023/08/12 14:20:18;;;;;;;1.00;1.00;;;;;;;;;;4935338;29;20307;-85
2023/08/12 14:22:47;;;;;;;1.20;1.10;;;;;;;;;;4936184;29;20732;-86
2023/08/12 14:25:18;;;;;;;1.20;1.20;;;;;;;;;;4935813;29;20643;-86
2023/08/12 14:27:46;;;;;;;1.17;1.17;;;;;;;;;;4934604;29;20199;-85
2023/08/12 14:30:14;;;;;;;1.98;1.83;;;;;;;;;;4935594;29;20319;-85
2023/08/12 14:32:44;;;;;;;1.17;1.17;;;;;;;;;;4935501;29;20255;-85
2023/08/12 14:35:13;;;;;;;1.17;1.17;;;;;;;;;;4934297;29;20631;-85
2023/08/12 14:37:43;;;;;;;0.95;0.95;;;;;;;;;;4935283;29;20195;-85
2023/08/12 14:40:13;;;;;;;0.90;0.90;;;;;;;;;;4934861;29;20511;-84
2023/08/12 14:42:42;;;;;;;1.02;1.02;;;;;;;;;;4934011;29;20203;-85
2023/08/12 14:45:11;;;;;;;0.98;0.90;;;;;;;;;;4935080;29;20208;-85
2023/08/12 14:47:40;;;;;;;1.00;1.00;;;;;;;;;;4935691;29;20200;-85
2023/08/12 14:50:10;;;;;;;1.10;1.10;;;;;;;;;;4934668;29;20219;-86
2023/08/12 14:52:41;;;;;;;0.90;0.90;;;;;;;;;;4935251;29;20249;-86
2023/08/12 14:55:10;;;;;;;1.00;1.00;;;;;;;;;;4934745;29;20204;-86
2023/08/12 14:57:40;;;;;;;0.80;0.80;;;;;;;;;;4934096;29;20230;-85
2023/08/12 15:00:12;;;;;;;1.30;1.30;;;;;;;;;;4934718;29;20231;-85
2023/08/12 15:02:40;;;;;;;1.20;1.20;;;;;;;;;;4935061;29;20208;-85